createdAt,value
2017-12-11T00:00:21.792Z,0
2017-12-11T00:01:23.677Z,0
2017-12-11T00:02:37.821Z,0
2017-12-11T00:03:39.704Z,0
2017-12-11T00:04:41.587Z,0
2017-12-11T00:05:43.460Z,0
2017-12-11T00:06:45.279Z,0
2017-12-11T00:07:47.100Z,0
2017-12-11T00:08:48.985Z,0
2017-12-11T00:09:50.884Z,0
2017-12-11T00:10:52.770Z,0
2017-12-11T00:12:06.913Z,0
2017-12-11T00:13:08.796Z,0
2017-12-11T00:14:10.677Z,0
2017-12-11T00:15:12.551Z,0
2017-12-11T00:16:14.363Z,0
2017-12-11T00:17:16.172Z,0
2017-12-11T00:18:18.045Z,0
2017-12-11T00:19:19.928Z,0
2017-12-11T00:20:21.801Z,0
2017-12-11T00:21:35.958Z,0
2017-12-11T00:22:37.829Z,0
2017-12-11T00:23:39.713Z,0
2017-12-11T00:24:41.596Z,0
2017-12-11T00:25:43.416Z,0
2017-12-11T00:26:45.237Z,0
2017-12-11T00:27:47.120Z,0
2017-12-11T00:28:49.002Z,0
2017-12-11T00:29:50.886Z,0
2017-12-11T00:31:05.041Z,0
2017-12-11T00:32:06.924Z,0
2017-12-11T00:33:08.805Z,0
2017-12-11T00:34:10.689Z,0
2017-12-11T00:35:12.511Z,0
2017-12-11T00:36:14.332Z,0
2017-12-11T00:37:16.216Z,0
2017-12-11T00:38:18.087Z,0
2017-12-11T00:39:19.970Z,0
2017-12-11T00:40:34.109Z,0
2017-12-11T00:41:35.991Z,0
2017-12-11T00:42:37.874Z,0
2017-12-11T00:43:39.758Z,0
2017-12-11T00:44:41.570Z,0
2017-12-11T00:45:43.377Z,0
2017-12-11T00:46:45.248Z,0
2017-12-11T00:47:47.130Z,0
2017-12-11T00:48:49.014Z,0
2017-12-11T00:50:03.169Z,0
2017-12-11T00:51:05.051Z,0
2017-12-11T00:52:06.933Z,0
2017-12-11T00:53:08.803Z,0
2017-12-11T00:54:10.626Z,0
2017-12-11T00:55:12.445Z,0
2017-12-11T00:56:14.329Z,0
2017-12-11T00:57:16.202Z,0
2017-12-11T00:58:18.083Z,0
2017-12-11T00:59:32.241Z,0
2017-12-11T01:00:34.112Z,0
2017-12-11T01:01:35.984Z,0
2017-12-11T01:02:37.873Z,0
2017-12-11T01:03:39.684Z,0
2017-12-11T01:04:41.492Z,0
2017-12-11T01:05:43.376Z,0
2017-12-11T01:06:45.247Z,0
2017-12-11T01:07:47.132Z,0
2017-12-11T01:09:01.276Z,0
2017-12-11T01:10:03.158Z,0
2017-12-11T01:11:05.039Z,0
2017-12-11T01:12:06.911Z,0
2017-12-11T01:13:08.730Z,0
2017-12-11T01:14:10.551Z,0
2017-12-11T01:15:12.423Z,0
2017-12-11T01:16:14.307Z,0
2017-12-11T01:17:16.189Z,0
2017-12-11T01:18:30.334Z,0
2017-12-11T01:19:32.218Z,0
2017-12-11T01:20:34.100Z,0
2017-12-11T01:21:35.973Z,0
2017-12-11T01:22:37.792Z,0
2017-12-11T01:23:39.614Z,0
2017-12-11T01:24:41.459Z,0
2017-12-11T01:25:43.333Z,0
2017-12-11T01:26:45.216Z,0
2017-12-11T01:27:59.370Z,0
2017-12-11T01:29:01.255Z,0
2017-12-11T01:30:03.139Z,0
2017-12-11T01:31:05.010Z,0
2017-12-11T01:32:06.829Z,0
2017-12-11T01:33:08.652Z,0
2017-12-11T01:34:10.534Z,0
2017-12-11T01:35:12.418Z,0
2017-12-11T01:36:14.307Z,0
2017-12-11T01:37:28.448Z,0
2017-12-11T01:38:30.329Z,0
2017-12-11T01:39:32.209Z,0
2017-12-11T01:40:34.080Z,0
2017-12-11T01:41:35.893Z,0
2017-12-11T01:42:37.701Z,0
2017-12-11T01:43:39.574Z,0
2017-12-11T01:44:41.455Z,0
2017-12-11T01:45:43.339Z,0
2017-12-11T01:46:57.495Z,0
2017-12-11T01:47:59.368Z,0
2017-12-11T01:49:01.240Z,0
2017-12-11T01:50:03.142Z,0
2017-12-11T01:51:04.951Z,0
2017-12-11T01:52:06.762Z,0
2017-12-11T01:53:08.636Z,0
2017-12-11T01:54:10.518Z,0
2017-12-11T01:55:12.399Z,0
2017-12-11T01:56:26.555Z,0
2017-12-11T01:57:28.437Z,0
2017-12-11T01:58:30.323Z,0
2017-12-11T01:59:32.190Z,0
2017-12-11T02:00:34.011Z,0
2017-12-11T02:01:35.830Z,0
2017-12-11T02:02:37.710Z,0
2017-12-11T02:03:39.591Z,0
2017-12-11T02:04:41.462Z,0
2017-12-11T02:05:55.619Z,0
2017-12-11T02:06:57.491Z,0
2017-12-11T02:07:59.365Z,0
2017-12-11T02:09:01.248Z,0
2017-12-11T02:10:03.071Z,0
2017-12-11T02:11:04.892Z,0
2017-12-11T02:12:06.768Z,0
2017-12-11T02:13:08.641Z,0
2017-12-11T02:14:10.524Z,0
2017-12-11T02:15:24.679Z,0
2017-12-11T02:16:26.562Z,0
2017-12-11T02:17:28.444Z,0
2017-12-11T02:18:30.314Z,0
2017-12-11T02:19:32.125Z,0
2017-12-11T02:20:33.947Z,0
2017-12-11T02:21:35.828Z,0
2017-12-11T02:22:37.699Z,0
2017-12-11T02:23:39.584Z,0
2017-12-11T02:24:53.741Z,0
2017-12-11T02:25:55.622Z,0
2017-12-11T02:26:57.501Z,0
2017-12-11T02:27:59.385Z,0
2017-12-11T02:29:01.208Z,0
2017-12-11T02:30:03.032Z,0
2017-12-11T02:31:04.902Z,0
2017-12-11T02:32:06.782Z,0
2017-12-11T02:33:08.648Z,0
2017-12-11T02:34:22.795Z,0
2017-12-11T02:35:24.666Z,0
2017-12-11T02:36:26.551Z,0
2017-12-11T02:37:28.424Z,0
2017-12-11T02:38:30.235Z,0
2017-12-11T02:39:32.058Z,0
2017-12-11T02:40:33.930Z,0
2017-12-11T02:41:35.815Z,0
2017-12-11T02:42:37.687Z,0
2017-12-11T02:43:51.895Z,0
2017-12-11T02:44:53.771Z,0
2017-12-11T02:45:55.640Z,0
2017-12-11T02:46:57.528Z,0
2017-12-11T02:47:59.337Z,0
2017-12-11T02:49:01.158Z,0
2017-12-11T02:50:03.031Z,0
2017-12-11T02:51:04.916Z,0
2017-12-11T02:52:06.788Z,0
2017-12-11T02:53:21.015Z,0
2017-12-11T02:54:22.819Z,0
2017-12-11T02:55:24.703Z,0
2017-12-11T02:56:26.577Z,0
2017-12-11T02:57:28.388Z,0
2017-12-11T02:58:30.204Z,0
2017-12-11T02:59:32.091Z,0
2017-12-11T03:00:33.974Z,0
2017-12-11T03:01:35.847Z,0
2017-12-11T03:02:50.055Z,0
2017-12-11T03:03:51.930Z,0
2017-12-11T03:04:53.803Z,0
2017-12-11T03:05:55.685Z,0
2017-12-11T03:06:57.507Z,0
2017-12-11T03:07:59.330Z,0
2017-12-11T03:09:01.203Z,0
2017-12-11T03:10:03.076Z,0
2017-12-11T03:11:04.957Z,0
2017-12-11T03:12:19.115Z,0
2017-12-11T03:13:20.989Z,0
2017-12-11T03:14:22.861Z,0
2017-12-11T03:15:24.743Z,0
2017-12-11T03:16:26.553Z,0
2017-12-11T03:17:28.375Z,0
2017-12-11T03:18:30.248Z,0
2017-12-11T03:19:32.130Z,0
2017-12-11T03:20:34.002Z,0
2017-12-11T03:21:48.160Z,0
2017-12-11T03:22:50.045Z,0
2017-12-11T03:23:51.920Z,0
2017-12-11T03:24:53.808Z,0
2017-12-11T03:25:55.615Z,0
2017-12-11T03:26:57.437Z,0
2017-12-11T03:27:59.308Z,0
2017-12-11T03:29:01.179Z,0
2017-12-11T03:30:03.063Z,0
2017-12-11T03:31:17.201Z,0
2017-12-11T03:32:19.092Z,0
2017-12-11T03:33:20.965Z,0
2017-12-11T03:34:22.835Z,0
2017-12-11T03:35:24.690Z,0
2017-12-11T03:36:26.474Z,0
2017-12-11T03:37:28.356Z,0
2017-12-11T03:38:30.227Z,0
2017-12-11T03:39:32.106Z,0
2017-12-11T03:40:46.252Z,0
2017-12-11T03:41:48.146Z,0
2017-12-11T03:42:50.011Z,0
2017-12-11T03:43:51.888Z,0
2017-12-11T03:44:53.695Z,0
2017-12-11T03:45:55.517Z,0
2017-12-11T03:46:57.401Z,0
2017-12-11T03:47:59.271Z,0
2017-12-11T03:49:01.154Z,0
2017-12-11T03:50:15.312Z,0
2017-12-11T03:51:17.182Z,0
2017-12-11T03:52:19.055Z,0
2017-12-11T03:53:20.928Z,0
2017-12-11T03:54:22.754Z,0
2017-12-11T03:55:24.562Z,0
2017-12-11T03:56:26.434Z,0
2017-12-11T03:57:28.319Z,0
2017-12-11T03:58:30.191Z,0
2017-12-11T03:59:44.348Z,0
2017-12-11T04:00:46.230Z,0
2017-12-11T04:01:48.104Z,0
2017-12-11T04:02:49.977Z,0
2017-12-11T04:03:51.788Z,0
2017-12-11T04:04:53.612Z,0
2017-12-11T04:05:55.497Z,0
2017-12-11T04:06:57.368Z,0
2017-12-11T04:07:59.240Z,0
2017-12-11T04:09:13.399Z,0
2017-12-11T04:10:15.269Z,0
2017-12-11T04:11:17.152Z,0
2017-12-11T04:12:19.036Z,0
2017-12-11T04:13:21.059Z,0
2017-12-11T04:14:23.015Z,0
2017-12-11T04:15:24.890Z,0
2017-12-11T04:16:26.763Z,0
2017-12-11T04:17:28.636Z,0
2017-12-11T04:18:42.789Z,0
2017-12-11T04:19:44.677Z,0
2017-12-11T04:20:46.566Z,0
2017-12-11T04:21:48.440Z,0
2017-12-11T04:22:50.262Z,0
2017-12-11T04:23:52.085Z,0
2017-12-11T04:24:53.960Z,0
2017-12-11T04:25:55.836Z,0
2017-12-11T04:26:57.719Z,0
2017-12-11T04:28:11.876Z,0
2017-12-11T04:29:13.748Z,0
2017-12-11T04:30:15.621Z,0
2017-12-11T04:31:17.493Z,0
2017-12-11T04:32:19.316Z,0
2017-12-11T04:33:21.139Z,0
2017-12-11T04:34:23.013Z,0
2017-12-11T04:35:24.886Z,0
2017-12-11T04:36:26.756Z,0
2017-12-11T04:37:40.911Z,0
2017-12-11T04:38:42.777Z,0
2017-12-11T04:39:44.649Z,0
2017-12-11T04:40:46.520Z,0
2017-12-11T04:41:48.343Z,0
2017-12-11T04:42:50.155Z,0
2017-12-11T04:43:52.028Z,0
2017-12-11T04:44:53.910Z,0
2017-12-11T04:45:55.784Z,0
2017-12-11T04:47:09.988Z,0
2017-12-11T04:48:11.858Z,0
2017-12-11T04:49:13.741Z,0
2017-12-11T04:50:15.613Z,0
2017-12-11T04:51:17.423Z,0
2017-12-11T04:52:19.236Z,0
2017-12-11T04:53:21.109Z,0
2017-12-11T04:54:22.990Z,0
2017-12-11T04:55:24.874Z,0
2017-12-11T04:56:39.032Z,0
2017-12-11T04:57:40.905Z,0
2017-12-11T04:58:42.779Z,0
2017-12-11T04:59:44.649Z,0
2017-12-11T05:00:46.568Z,0
2017-12-11T05:01:48.488Z,0
2017-12-11T05:02:50.477Z,0
2017-12-11T05:03:52.471Z,0
2017-12-11T05:04:54.491Z,0
2017-12-11T05:06:08.793Z,0
2017-12-11T05:07:10.814Z,0
2017-12-11T05:08:12.843Z,0
2017-12-11T05:09:14.851Z,0
2017-12-11T05:10:16.834Z,0
2017-12-11T05:11:18.834Z,0
2017-12-11T05:12:20.836Z,0
2017-12-11T05:13:22.902Z,0
2017-12-11T05:14:24.913Z,0
2017-12-11T05:15:39.218Z,0
2017-12-11T05:16:41.153Z,0
2017-12-11T05:17:43.138Z,0
2017-12-11T05:18:45.018Z,0
2017-12-11T05:19:46.841Z,0
2017-12-11T05:20:48.664Z,0
2017-12-11T05:21:50.535Z,0
2017-12-11T05:22:52.418Z,0
2017-12-11T05:23:54.300Z,0
2017-12-11T05:25:08.457Z,0
2017-12-11T05:26:10.340Z,0
2017-12-11T05:27:12.215Z,0
2017-12-11T05:28:14.085Z,0
2017-12-11T05:29:15.898Z,0
2017-12-11T05:30:17.710Z,0
2017-12-11T05:31:19.584Z,0
2017-12-11T05:32:21.457Z,0
2017-12-11T05:33:23.337Z,0
2017-12-11T05:34:37.494Z,0
2017-12-11T05:35:39.375Z,0
2017-12-11T05:36:41.256Z,0
2017-12-11T05:37:43.127Z,0
2017-12-11T05:38:44.957Z,0
2017-12-11T05:39:46.766Z,0
2017-12-11T05:40:48.638Z,0
2017-12-11T05:41:50.521Z,0
2017-12-11T05:42:52.394Z,0
2017-12-11T05:44:06.540Z,0
2017-12-11T05:45:08.423Z,0
2017-12-11T05:46:10.306Z,0
2017-12-11T05:47:12.179Z,0
2017-12-11T05:48:13.992Z,0
2017-12-11T05:49:15.812Z,0
2017-12-11T05:50:17.686Z,0
2017-12-11T05:51:19.569Z,0
2017-12-11T05:52:21.441Z,0
2017-12-11T05:53:35.588Z,0
2017-12-11T05:54:37.461Z,0
2017-12-11T05:55:39.334Z,0
2017-12-11T05:56:41.217Z,0
2017-12-11T05:57:43.027Z,0
2017-12-11T05:58:44.840Z,0
2017-12-11T05:59:46.712Z,0
2017-12-11T06:00:48.594Z,0
2017-12-11T06:01:50.475Z,0
2017-12-11T06:03:04.623Z,0
2017-12-11T06:04:06.495Z,0
2017-12-11T06:05:08.369Z,0
2017-12-11T06:06:10.241Z,0
2017-12-11T06:07:12.063Z,0
2017-12-11T06:08:13.884Z,0
2017-12-11T06:09:15.767Z,0
2017-12-11T06:10:17.650Z,0
2017-12-11T06:11:19.535Z,0
2017-12-11T06:12:33.686Z,0
2017-12-11T06:13:35.559Z,0
2017-12-11T06:14:37.438Z,0
2017-12-11T06:15:39.310Z,0
2017-12-11T06:16:41.122Z,0
2017-12-11T06:17:42.942Z,0
2017-12-11T06:18:44.815Z,0
2017-12-11T06:19:46.690Z,0
2017-12-11T06:20:48.564Z,0
2017-12-11T06:22:02.762Z,0
2017-12-11T06:23:04.639Z,0
2017-12-11T06:24:06.535Z,4
2017-12-11T06:25:08.410Z,4
2017-12-11T06:26:10.220Z,4
2017-12-11T06:27:12.043Z,4
2017-12-11T06:28:13.914Z,4
2017-12-11T06:29:15.788Z,8
2017-12-11T06:30:17.670Z,4
2017-12-11T06:31:31.865Z,8
2017-12-11T06:32:33.737Z,12
2017-12-11T06:33:35.622Z,12
2017-12-11T06:34:37.494Z,12
2017-12-11T06:35:39.305Z,16
2017-12-11T06:36:41.129Z,16
2017-12-11T06:37:43.014Z,20
2017-12-11T06:38:44.886Z,20
2017-12-11T06:39:46.770Z,28
2017-12-11T06:41:00.970Z,32
2017-12-11T06:42:02.840Z,36
2017-12-11T06:43:04.716Z,44
2017-12-11T06:44:06.597Z,44
2017-12-11T06:45:08.420Z,52
2017-12-11T06:46:10.243Z,64
2017-12-11T06:47:12.127Z,68
2017-12-11T06:48:14.010Z,76
2017-12-11T06:49:15.883Z,84
2017-12-11T06:50:30.041Z,96
2017-12-11T06:51:31.915Z,104
2017-12-11T06:52:33.790Z,116
2017-12-11T06:53:35.676Z,128
2017-12-11T06:54:37.488Z,140
2017-12-11T06:55:39.313Z,152
2017-12-11T06:56:41.197Z,168
2017-12-11T06:57:43.070Z,176
2017-12-11T06:58:44.956Z,196
2017-12-11T06:59:59.104Z,216
2017-12-11T07:01:00.990Z,232
2017-12-11T07:02:02.877Z,248
2017-12-11T07:03:04.755Z,264
2017-12-11T07:04:06.581Z,284
2017-12-11T07:05:08.396Z,304
2017-12-11T07:06:10.280Z,332
2017-12-11T07:07:12.149Z,356
2017-12-11T07:08:14.036Z,384
2017-12-11T07:09:28.186Z,420
2017-12-11T07:10:30.060Z,444
2017-12-11T07:11:31.946Z,472
2017-12-11T07:12:33.826Z,500
2017-12-11T07:13:35.635Z,536
2017-12-11T07:14:37.460Z,568
2017-12-11T07:15:39.346Z,608
2017-12-11T07:16:41.230Z,640
2017-12-11T07:17:43.116Z,672
2017-12-11T07:18:57.275Z,712
2017-12-11T07:19:59.161Z,740
2017-12-11T07:21:01.047Z,764
2017-12-11T07:22:02.923Z,792
2017-12-11T07:23:04.751Z,820
2017-12-11T07:24:06.568Z,860
2017-12-11T07:25:08.638Z,912
2017-12-11T07:26:10.516Z,976
2017-12-11T07:27:12.408Z,1040
2017-12-11T07:28:26.526Z,1108
2017-12-11T07:29:28.345Z,1176
2017-12-11T07:30:30.159Z,1272
2017-12-11T07:31:31.993Z,1376
2017-12-11T07:32:33.827Z,1496
2017-12-11T07:33:35.715Z,1592
2017-12-11T07:34:37.629Z,1648
2017-12-11T07:35:39.426Z,1688
2017-12-11T07:36:41.246Z,1716
2017-12-11T07:37:55.393Z,1748
2017-12-11T07:38:57.282Z,1796
2017-12-11T07:39:59.168Z,1840
2017-12-11T07:41:01.056Z,1892
2017-12-11T07:42:02.890Z,1960
2017-12-11T07:43:04.704Z,2016
2017-12-11T07:44:06.591Z,2092
2017-12-11T07:45:08.466Z,2152
2017-12-11T07:46:10.353Z,2228
2017-12-11T07:47:24.506Z,2324
2017-12-11T07:48:26.383Z,2376
2017-12-11T07:49:28.323Z,2412
2017-12-11T07:50:30.187Z,2476
2017-12-11T07:51:32.005Z,2540
2017-12-11T07:52:33.834Z,2600
2017-12-11T07:53:35.714Z,2552
2017-12-11T07:54:37.594Z,2416
2017-12-11T07:55:39.490Z,2244
2017-12-11T07:56:53.636Z,2124
2017-12-11T07:57:55.513Z,2120
2017-12-11T07:58:57.395Z,2152
2017-12-11T07:59:59.285Z,2216
2017-12-11T08:01:01.100Z,2232
2017-12-11T08:02:02.918Z,2228
2017-12-11T08:03:04.806Z,2248
2017-12-11T08:04:06.694Z,2328
2017-12-11T08:05:08.584Z,2360
2017-12-11T08:06:22.736Z,2344
2017-12-11T08:07:24.614Z,2320
2017-12-11T08:08:26.492Z,2316
2017-12-11T08:09:28.368Z,2360
2017-12-11T08:10:30.195Z,2372
2017-12-11T08:11:32.013Z,2412
2017-12-11T08:12:33.902Z,2464
2017-12-11T08:13:35.782Z,2532
2017-12-11T08:14:37.659Z,2576
2017-12-11T08:15:51.864Z,2608
2017-12-11T08:16:53.747Z,2656
2017-12-11T08:17:55.619Z,2732
2017-12-11T08:18:57.530Z,2844
2017-12-11T08:19:59.359Z,2952
2017-12-11T08:21:01.176Z,3056
2017-12-11T08:22:03.057Z,3172
2017-12-11T08:23:04.935Z,3300
2017-12-11T08:24:06.822Z,3388
2017-12-11T08:25:20.986Z,3476
2017-12-11T08:26:22.864Z,3548
2017-12-11T08:27:24.752Z,3640
2017-12-11T08:28:26.630Z,3764
2017-12-11T08:29:28.456Z,3944
2017-12-11T08:30:30.287Z,4208
2017-12-11T08:31:32.163Z,4392
2017-12-11T08:32:34.041Z,4528
2017-12-11T08:33:35.916Z,4488
2017-12-11T08:34:50.080Z,4392
2017-12-11T08:35:51.970Z,4372
2017-12-11T08:36:53.856Z,4360
2017-12-11T08:37:55.726Z,4352
2017-12-11T08:38:57.560Z,4384
2017-12-11T08:39:59.371Z,4404
2017-12-11T08:41:01.248Z,4296
2017-12-11T08:42:03.128Z,4176
2017-12-11T08:43:05.016Z,4152
2017-12-11T08:44:19.169Z,4180
2017-12-11T08:45:21.046Z,4260
2017-12-11T08:46:22.936Z,4332
2017-12-11T08:47:24.826Z,4340
2017-12-11T08:48:26.654Z,4344
2017-12-11T08:49:28.485Z,4396
2017-12-11T08:50:30.364Z,4444
2017-12-11T08:51:32.242Z,4504
2017-12-11T08:52:34.124Z,4544
2017-12-11T08:53:48.302Z,4548
2017-12-11T08:54:50.202Z,4532
2017-12-11T08:55:52.091Z,4452
2017-12-11T08:56:53.971Z,4328
2017-12-11T08:57:55.798Z,4216
2017-12-11T08:58:57.628Z,4124
2017-12-11T08:59:59.508Z,4064
2017-12-11T09:01:01.400Z,4044
2017-12-11T09:02:03.288Z,4088
2017-12-11T09:03:17.444Z,4212
2017-12-11T09:04:19.324Z,4340
2017-12-11T09:05:21.202Z,4504
2017-12-11T09:06:23.080Z,4652
2017-12-11T09:07:24.907Z,4728
2017-12-11T09:08:26.736Z,4752
2017-12-11T09:09:28.614Z,4708
2017-12-11T09:10:30.493Z,4632
2017-12-11T09:11:32.383Z,4612
2017-12-11T09:12:46.545Z,4676
2017-12-11T09:13:48.436Z,4776
2017-12-11T09:14:50.325Z,4876
2017-12-11T09:15:52.204Z,4928
2017-12-11T09:16:54.032Z,4852
2017-12-11T09:17:55.899Z,4720
2017-12-11T09:18:57.730Z,4592
2017-12-11T09:19:59.611Z,4576
2017-12-11T09:21:01.489Z,4684
2017-12-11T09:22:15.653Z,4860
2017-12-11T09:23:17.531Z,5048
2017-12-11T09:24:19.412Z,5228
2017-12-11T09:25:21.290Z,5324
2017-12-11T09:26:23.118Z,5384
2017-12-11T09:27:24.937Z,5408
2017-12-11T09:28:26.832Z,5400
2017-12-11T09:29:28.708Z,5376
2017-12-11T09:30:30.582Z,5376
2017-12-11T09:31:44.746Z,5376
2017-12-11T09:32:46.624Z,5360
2017-12-11T09:33:48.525Z,5308
2017-12-11T09:34:50.397Z,5296
2017-12-11T09:35:52.210Z,5308
2017-12-11T09:36:54.040Z,5336
2017-12-11T09:37:55.919Z,5384
2017-12-11T09:38:57.799Z,5468
2017-12-11T09:39:59.688Z,5464
2017-12-11T09:41:13.903Z,5352
2017-12-11T09:42:15.781Z,5224
2017-12-11T09:43:17.671Z,5124
2017-12-11T09:44:19.550Z,5036
2017-12-11T09:45:21.379Z,4928
2017-12-11T09:46:23.199Z,4848
2017-12-11T09:47:25.083Z,4812
2017-12-11T09:48:26.956Z,4860
2017-12-11T09:49:28.912Z,4972
2017-12-11T09:50:43.058Z,5120
2017-12-11T09:51:44.936Z,5192
2017-12-11T09:52:46.813Z,5208
2017-12-11T09:53:48.693Z,5176
2017-12-11T09:54:50.509Z,5076
2017-12-11T09:55:52.339Z,4920
2017-12-11T09:56:54.230Z,4760
2017-12-11T09:57:56.110Z,4632
2017-12-11T09:58:57.987Z,4476
2017-12-11T10:00:12.151Z,4248
2017-12-11T10:01:14.042Z,4072
2017-12-11T10:02:15.931Z,3888
2017-12-11T10:03:17.817Z,3720
2017-12-11T10:04:19.645Z,3596
2017-12-11T10:05:21.474Z,3540
2017-12-11T10:06:23.354Z,3568
2017-12-11T10:07:25.234Z,3616
2017-12-11T10:08:27.112Z,3672
2017-12-11T10:09:41.267Z,3724
2017-12-11T10:10:43.146Z,3784
2017-12-11T10:11:45.036Z,3804
2017-12-11T10:12:46.918Z,3824
2017-12-11T10:13:48.736Z,3872
2017-12-11T10:14:50.565Z,3836
2017-12-11T10:15:52.444Z,3764
2017-12-11T10:16:54.323Z,3796
2017-12-11T10:17:56.200Z,3924
2017-12-11T10:19:10.366Z,4176
2017-12-11T10:20:12.244Z,4284
2017-12-11T10:21:14.133Z,4480
2017-12-11T10:22:16.014Z,4632
2017-12-11T10:23:17.842Z,4736
2017-12-11T10:24:19.670Z,4764
2017-12-11T10:25:21.553Z,4784
2017-12-11T10:26:23.429Z,4836
2017-12-11T10:27:25.308Z,4900
2017-12-11T10:28:39.472Z,4948
2017-12-11T10:29:41.363Z,4960
2017-12-11T10:30:43.254Z,4976
2017-12-11T10:31:45.133Z,5000
2017-12-11T10:32:46.963Z,5056
2017-12-11T10:33:48.793Z,5132
2017-12-11T10:34:50.674Z,5200
2017-12-11T10:35:52.554Z,5296
2017-12-11T10:36:54.446Z,5444
2017-12-11T10:38:08.608Z,5644
2017-12-11T10:39:10.487Z,5836
2017-12-11T10:40:12.369Z,6064
2017-12-11T10:41:14.246Z,6336
2017-12-11T10:42:16.076Z,6572
2017-12-11T10:43:17.897Z,6628
2017-12-11T10:44:19.776Z,6496
2017-12-11T10:45:21.657Z,6224
2017-12-11T10:46:23.535Z,5960
2017-12-11T10:47:37.702Z,5748
2017-12-11T10:48:39.583Z,5676
2017-12-11T10:49:41.467Z,5680
2017-12-11T10:50:43.350Z,5812
2017-12-11T10:51:45.175Z,6056
2017-12-11T10:52:46.990Z,6360
2017-12-11T10:53:48.883Z,6736
2017-12-11T10:54:50.761Z,7088
2017-12-11T10:55:52.641Z,7320
2017-12-11T10:57:06.846Z,7316
2017-12-11T10:58:08.739Z,7192
2017-12-11T10:59:10.656Z,6976
2017-12-11T11:00:12.549Z,6792
2017-12-11T11:01:14.370Z,6724
2017-12-11T11:02:16.192Z,6788
2017-12-11T11:03:18.085Z,6772
2017-12-11T11:04:19.958Z,6456
2017-12-11T11:05:21.849Z,6116
2017-12-11T11:06:36.059Z,5708
2017-12-11T11:07:37.936Z,5440
2017-12-11T11:08:39.834Z,5244
2017-12-11T11:09:41.709Z,5116
2017-12-11T11:10:43.540Z,5056
2017-12-11T11:11:45.369Z,5064
2017-12-11T11:12:47.244Z,5088
2017-12-11T11:13:49.123Z,5052
2017-12-11T11:14:51.018Z,4988
2017-12-11T11:16:05.173Z,4924
2017-12-11T11:17:07.066Z,4900
2017-12-11T11:18:08.946Z,4876
2017-12-11T11:19:10.825Z,4908
2017-12-11T11:20:12.672Z,4864
2017-12-11T11:21:14.492Z,4768
2017-12-11T11:22:16.378Z,4712
2017-12-11T11:23:18.418Z,4692
2017-12-11T11:24:20.398Z,4744
2017-12-11T11:25:34.468Z,4864
2017-12-11T11:26:36.347Z,4984
2017-12-11T11:27:38.247Z,5064
2017-12-11T11:28:40.128Z,5132
2017-12-11T11:29:41.943Z,5188
2017-12-11T11:30:43.773Z,5164
2017-12-11T11:31:45.665Z,5096
2017-12-11T11:32:47.542Z,5008
2017-12-11T11:33:49.398Z,4944
2017-12-11T11:35:03.553Z,4860
2017-12-11T11:36:05.436Z,4840
2017-12-11T11:37:07.318Z,4896
2017-12-11T11:38:09.197Z,5000
2017-12-11T11:39:11.026Z,5020
2017-12-11T11:40:12.856Z,4968
2017-12-11T11:41:14.747Z,4908
2017-12-11T11:42:16.638Z,4972
2017-12-11T11:43:18.527Z,5124
2017-12-11T11:44:32.692Z,5384
2017-12-11T11:45:34.572Z,5500
2017-12-11T11:46:36.462Z,5456
2017-12-11T11:47:38.341Z,5200
2017-12-11T11:48:40.171Z,4896
2017-12-11T11:49:42.001Z,4800
2017-12-11T11:50:43.880Z,4656
2017-12-11T11:51:45.771Z,4440
2017-12-11T11:52:47.662Z,4228
2017-12-11T11:54:01.815Z,3988
2017-12-11T11:55:03.708Z,3852
2017-12-11T11:56:05.586Z,3844
2017-12-11T11:57:07.477Z,3872
2017-12-11T11:58:09.306Z,3996
2017-12-11T11:59:11.136Z,4180
2017-12-11T12:00:13.017Z,4416
2017-12-11T12:01:14.909Z,4632
2017-12-11T12:02:16.797Z,4852
2017-12-11T12:03:31.002Z,4928
2017-12-11T12:04:32.881Z,4788
2017-12-11T12:05:34.836Z,4548
2017-12-11T12:06:36.714Z,4316
2017-12-11T12:07:38.545Z,4056
2017-12-11T12:08:40.376Z,3896
2017-12-11T12:09:42.265Z,3816
2017-12-11T12:10:44.154Z,3812
2017-12-11T12:11:46.036Z,3860
2017-12-11T12:13:00.189Z,4000
2017-12-11T12:14:02.068Z,4128
2017-12-11T12:15:03.958Z,4272
2017-12-11T12:16:05.849Z,4420
2017-12-11T12:17:07.680Z,4608
2017-12-11T12:18:09.510Z,4832
2017-12-11T12:19:11.330Z,4920
2017-12-11T12:20:13.161Z,4836
2017-12-11T12:21:14.991Z,4728
2017-12-11T12:22:29.144Z,4684
2017-12-11T12:23:31.027Z,4800
2017-12-11T12:24:32.918Z,5020
2017-12-11T12:25:34.797Z,5212
2017-12-11T12:26:36.628Z,5252
2017-12-11T12:27:38.490Z,5108
2017-12-11T12:28:40.328Z,4956
2017-12-11T12:29:42.218Z,4784
2017-12-11T12:30:44.108Z,4560
2017-12-11T12:31:58.262Z,4436
2017-12-11T12:33:00.148Z,4412
2017-12-11T12:34:02.030Z,4416
2017-12-11T12:35:03.929Z,4400
2017-12-11T12:36:05.753Z,4344
2017-12-11T12:37:07.571Z,4232
2017-12-11T12:38:09.472Z,4104
2017-12-11T12:39:11.344Z,4020
2017-12-11T12:40:13.234Z,3932
2017-12-11T12:41:27.401Z,3832
2017-12-11T12:42:29.281Z,3792
2017-12-11T12:43:31.172Z,3824
2017-12-11T12:44:33.054Z,3896
2017-12-11T12:45:34.885Z,3960
2017-12-11T12:46:36.704Z,3932
2017-12-11T12:47:38.584Z,3852
2017-12-11T12:48:40.474Z,3808
2017-12-11T12:49:42.365Z,3816
2017-12-11T12:50:56.519Z,3832
2017-12-11T12:51:58.400Z,3800
2017-12-11T12:53:00.293Z,3728
2017-12-11T12:54:02.175Z,3616
2017-12-11T12:55:03.995Z,3464
2017-12-11T12:56:05.826Z,3304
2017-12-11T12:57:07.707Z,3180
2017-12-11T12:58:09.598Z,3072
2017-12-11T12:59:11.487Z,2976
2017-12-11T13:00:25.641Z,2908
2017-12-11T13:01:27.521Z,2860
2017-12-11T13:02:29.403Z,2784
2017-12-11T13:03:31.280Z,2720
2017-12-11T13:04:33.109Z,2684
2017-12-11T13:05:34.937Z,2636
2017-12-11T13:06:36.816Z,2596
2017-12-11T13:07:38.707Z,2544
2017-12-11T13:08:40.600Z,2488
2017-12-11T13:09:54.741Z,2388
2017-12-11T13:10:56.621Z,2312
2017-12-11T13:11:58.502Z,2264
2017-12-11T13:13:00.382Z,2228
2017-12-11T13:14:02.199Z,2200
2017-12-11T13:15:04.027Z,2160
2017-12-11T13:16:05.919Z,2120
2017-12-11T13:17:07.802Z,2092
2017-12-11T13:18:09.681Z,2092
2017-12-11T13:19:23.835Z,2132
2017-12-11T13:20:25.713Z,2204
2017-12-11T13:21:27.604Z,2264
2017-12-11T13:22:29.484Z,2236
2017-12-11T13:23:31.313Z,2120
2017-12-11T13:24:33.133Z,1952
2017-12-11T13:25:35.053Z,1784
2017-12-11T13:26:36.896Z,1680
2017-12-11T13:27:38.772Z,1604
2017-12-11T13:28:52.936Z,1564
2017-12-11T13:29:54.815Z,1540
2017-12-11T13:30:56.705Z,1528
2017-12-11T13:31:58.585Z,1536
2017-12-11T13:33:00.402Z,1536
2017-12-11T13:34:02.230Z,1540
2017-12-11T13:35:04.123Z,1532
2017-12-11T13:36:06.002Z,1532
2017-12-11T13:37:07.886Z,1512
2017-12-11T13:38:22.036Z,1500
2017-12-11T13:39:23.916Z,1512
2017-12-11T13:40:25.806Z,1524
2017-12-11T13:41:27.685Z,1536
2017-12-11T13:42:29.514Z,1512
2017-12-11T13:43:31.342Z,1480
2017-12-11T13:44:33.223Z,1476
2017-12-11T13:45:35.104Z,1448
2017-12-11T13:46:36.984Z,1460
2017-12-11T13:47:51.137Z,1432
2017-12-11T13:48:53.019Z,1428
2017-12-11T13:49:54.905Z,1304
2017-12-11T13:50:56.828Z,1300
2017-12-11T13:51:58.603Z,1232
2017-12-11T13:53:00.421Z,1172
2017-12-11T13:54:02.302Z,1272
2017-12-11T13:55:04.182Z,1264
2017-12-11T13:56:06.071Z,1236
2017-12-11T13:57:20.223Z,1188
2017-12-11T13:58:22.102Z,1272
2017-12-11T13:59:23.991Z,1208
2017-12-11T14:00:25.871Z,1188
2017-12-11T14:01:27.698Z,1276
2017-12-11T14:02:29.527Z,1156
2017-12-11T14:03:31.407Z,1088
2017-12-11T14:04:33.304Z,1056
2017-12-11T14:05:35.194Z,1020
2017-12-11T14:06:49.356Z,1040
2017-12-11T14:07:51.236Z,1028
2017-12-11T14:08:53.141Z,1052
2017-12-11T14:09:55.004Z,1036
2017-12-11T14:10:56.833Z,1004
2017-12-11T14:11:58.648Z,960
2017-12-11T14:13:00.539Z,948
2017-12-11T14:14:02.418Z,924
2017-12-11T14:15:04.296Z,916
2017-12-11T14:16:18.448Z,884
2017-12-11T14:17:20.325Z,852
2017-12-11T14:18:22.215Z,808
2017-12-11T14:19:24.117Z,764
2017-12-11T14:20:25.928Z,720
2017-12-11T14:21:27.784Z,680
2017-12-11T14:22:29.647Z,636
2017-12-11T14:23:31.521Z,584
2017-12-11T14:24:33.404Z,544
2017-12-11T14:25:47.568Z,488
2017-12-11T14:26:49.448Z,456
2017-12-11T14:27:51.328Z,424
2017-12-11T14:28:53.207Z,400
2017-12-11T14:29:55.033Z,376
2017-12-11T14:30:56.861Z,360
2017-12-11T14:31:58.739Z,340
2017-12-11T14:33:00.628Z,324
2017-12-11T14:34:02.506Z,300
2017-12-11T14:35:16.669Z,272
2017-12-11T14:36:19.092Z,256
2017-12-11T14:37:20.959Z,236
2017-12-11T14:38:22.851Z,220
2017-12-11T14:39:24.660Z,200
2017-12-11T14:40:26.472Z,188
2017-12-11T14:41:28.361Z,180
2017-12-11T14:42:30.238Z,172
2017-12-11T14:43:32.115Z,168
2017-12-11T14:44:46.289Z,164